Time,TemperatureF,DewpointF,PressureIn,WindDirection,WindDirectionDegrees,WindSpeedMPH,WindSpeedGustMPH,Humidity,HourlyPrecipIn,Conditions,Clouds,dailyrainin,SolarRadiationWatts/m^2,SoftwareType,DateUTC
2013-08-06 00:02:00,63.0,55.0,30.13,NNW,338,0.0,0.0,76,0.00,,,0.00,0.000000,,2013-08-06 04:02:00,
2013-08-06 00:22:00,61.0,54.0,30.13,NNW,338,0.0,0.0,77,0.00,,,0.00,0.000000,,2013-08-06 04:22:00,
2013-08-06 00:33:00,61.0,53.0,30.13,NNW,338,0.0,0.0,75,0.00,,,0.00,0.000000,,2013-08-06 04:33:00,
2013-08-06 00:53:00,62.0,53.0,30.13,NNW,338,0.0,0.0,73,0.00,,,0.00,0.000000,,2013-08-06 04:53:00,
2013-08-06 01:02:00,62.0,54.0,30.13,NNW,338,0.0,0.0,75,0.00,,,0.00,0.000000,,2013-08-06 05:02:00,
2013-08-06 01:11:00,62.0,54.0,30.13,NNW,338,0.0,0.0,76,0.00,,,0.00,0.000000,,2013-08-06 05:11:00,
2013-08-06 01:22:00,62.0,54.0,30.13,NNW,338,0.0,0.0,76,0.00,,,0.00,0.000000,,2013-08-06 05:22:00,
2013-08-06 01:32:00,62.0,54.0,30.13,NNW,338,0.0,0.0,75,0.00,,,0.00,0.000000,,2013-08-06 05:32:00,
2013-08-06 01:43:00,62.0,54.0,30.13,NNW,338,0.0,0.0,76,0.00,,,0.00,0.000000,,2013-08-06 05:43:00,
2013-08-06 01:53:00,62.0,54.0,30.13,NNW,338,0.0,0.0,76,0.00,,,0.00,0.000000,,2013-08-06 05:53:00,
2013-08-06 02:02:00,60.0,53.0,30.13,NNW,338,0.0,0.0,79,0.00,,,0.00,0.000000,,2013-08-06 06:02:00,
2013-08-06 02:12:00,60.0,54.0,30.13,NNW,338,0.0,0.0,80,0.00,,,0.00,0.000000,,2013-08-06 06:12:00,
2013-08-06 02:22:00,60.0,54.0,30.13,NNW,338,0.0,0.0,80,0.00,,,0.00,0.000000,,2013-08-06 06:22:00,
2013-08-06 02:32:00,61.0,55.0,30.14,NNW,338,0.0,0.0,80,0.00,,,0.00,0.000000,,2013-08-06 06:32:00,
2013-08-06 02:43:00,61.0,54.0,30.14,NNW,338,0.0,0.0,78,0.00,,,0.00,0.000000,,2013-08-06 06:43:00,
2013-08-06 02:52:00,61.0,54.0,30.14,NNW,338,0.0,0.0,78,0.00,,,0.00,0.000000,,2013-08-06 06:52:00,
2013-08-06 03:01:00,61.0,55.0,30.14,NNW,338,0.0,0.0,80,0.00,,,0.00,0.000000,,2013-08-06 07:01:00,
2013-08-06 03:12:00,61.0,55.0,30.14,NNW,338,0.0,0.0,80,0.00,,,0.00,0.000000,,2013-08-06 07:12:00,
2013-08-06 03:22:00,61.0,55.0,30.14,NNW,338,0.0,0.0,80,0.00,,,0.00,0.000000,,2013-08-06 07:22:00,
2013-08-06 03:32:00,61.0,55.0,30.14,NNW,338,0.0,0.0,81,0.00,,,0.00,0.000000,,2013-08-06 07:32:00,
2013-08-06 03:43:00,60.0,54.0,30.14,NNW,338,0.0,0.0,82,0.00,,,0.00,0.000000,,2013-08-06 07:43:00,
2013-08-06 03:53:00,60.0,54.0,30.14,NNW,338,0.0,0.0,82,0.00,,,0.00,0.000000,,2013-08-06 07:53:00,
2013-08-06 04:02:00,59.0,54.0,30.14,NNW,338,0.0,0.0,83,0.00,,,0.00,0.000000,,2013-08-06 08:02:00,
2013-08-06 04:11:00,59.0,54.0,30.14,NNW,338,0.0,0.0,83,0.00,,,0.00,0.000000,,2013-08-06 08:11:00,
2013-08-06 04:22:00,59.0,54.0,30.14,NNW,338,0.0,0.0,83,0.00,,,0.00,0.000000,,2013-08-06 08:22:00,
2013-08-06 04:33:00,59.0,54.0,30.14,NNW,338,0.0,0.0,84,0.00,,,0.00,0.000000,,2013-08-06 08:33:00,
2013-08-06 04:43:00,59.0,54.0,30.14,NNW,338,0.0,1.0,83,0.00,,,0.00,0.000000,,2013-08-06 08:43:00,
2013-08-06 05:01:00,59.0,54.0,30.15,NNW,338,0.0,0.0,83,0.00,,,0.00,0.000000,,2013-08-06 09:01:00,
2013-08-06 05:11:00,59.0,54.0,30.15,NNW,338,0.0,2.0,82,0.00,,,0.00,0.000000,,2013-08-06 09:11:00,
2013-08-06 05:22:00,59.0,54.0,30.15,NNW,338,0.0,2.0,82,0.00,,,0.00,0.000000,,2013-08-06 09:22:00,
2013-08-06 05:33:00,59.0,54.0,30.15,NNW,339,0.0,2.0,83,0.00,,,0.00,0.000000,,2013-08-06 09:33:00,
2013-08-06 05:43:00,59.0,54.0,30.15,NNW,339,0.0,0.0,84,0.00,,,0.00,0.000000,,2013-08-06 09:43:00,
2013-08-06 05:52:00,59.0,54.0,30.15,NNW,339,0.0,0.0,84,0.00,,,0.00,0.000000,,2013-08-06 09:52:00,
2013-08-06 06:01:00,59.0,54.0,30.16,NNW,339,0.0,0.0,82,0.00,,,0.00,0.000000,,2013-08-06 10:01:00,
2013-08-06 06:12:00,59.0,54.0,30.16,NNW,339,0.0,0.0,82,0.00,,,0.00,0.000000,,2013-08-06 10:12:00,
2013-08-06 06:22:00,59.0,54.0,30.16,NNW,339,0.0,0.0,82,0.00,,,0.00,0.000000,,2013-08-06 10:22:00,
2013-08-06 06:32:00,58.0,52.0,30.16,NNW,339,0.0,0.0,80,0.00,,,0.00,11.000000,,2013-08-06 10:32:00,
2013-08-06 06:53:00,59.0,52.0,30.17,NNW,339,0.0,0.0,79,0.00,,,0.00,21.000000,,2013-08-06 10:53:00,
2013-08-06 07:02:00,59.0,53.0,30.17,NNW,339,0.0,1.0,80,0.00,,,0.00,30.000000,,2013-08-06 11:02:00,
2013-08-06 07:22:00,60.0,54.0,30.17,NNW,339,0.0,0.0,82,0.00,,,0.00,49.000000,,2013-08-06 11:22:00,
2013-08-06 07:32:00,60.0,54.0,30.17,NNW,339,0.0,0.0,80,0.00,,,0.00,46.000000,,2013-08-06 11:32:00,
2013-08-06 07:53:00,61.0,54.0,30.18,NNW,339,0.0,0.0,78,0.00,,,0.00,53.000000,,2013-08-06 11:53:00,
2013-08-06 08:02:00,62.0,54.0,30.18,NNW,340,0.0,0.0,76,0.00,,,0.00,241.000000,,2013-08-06 12:02:00,
2013-08-06 08:11:00,62.0,54.0,30.18,NNW,340,0.0,0.0,76,0.00,,,0.00,241.000000,,2013-08-06 12:11:00,
2013-08-06 08:22:00,62.0,54.0,30.18,NNW,340,0.0,0.0,76,0.00,,,0.00,241.000000,,2013-08-06 12:22:00,
2013-08-06 08:32:00,65.0,59.0,30.18,ESE,119,0.0,4.0,80,0.00,,,0.00,332.000000,,2013-08-06 12:32:00,
2013-08-06 08:43:00,66.0,60.0,30.18,SE,133,0.0,3.0,81,0.00,,,0.00,380.000000,,2013-08-06 12:43:00,
2013-08-06 08:52:00,66.0,60.0,30.18,SE,133,0.0,3.0,81,0.00,,,0.00,380.000000,,2013-08-06 12:52:00,
2013-08-06 09:02:00,67.0,60.0,30.18,ESE,109,1.0,4.0,78,0.00,,,0.00,424.000000,,2013-08-06 13:02:00,
2013-08-06 09:11:00,67.0,60.0,30.18,ESE,109,1.0,4.0,78,0.00,,,0.00,424.000000,,2013-08-06 13:11:00,
2013-08-06 09:22:00,69.0,63.0,30.18,East,96,0.0,4.0,80,0.00,,,0.00,469.000000,,2013-08-06 13:22:00,
2013-08-06 09:32:00,70.0,62.0,30.18,SSE,150,0.0,5.0,77,0.00,,,0.00,515.000000,,2013-08-06 13:32:00,
2013-08-06 09:53:00,71.0,62.0,30.18,SE,144,1.0,4.0,74,0.00,,,0.00,559.000000,,2013-08-06 13:53:00,
2013-08-06 10:01:00,71.0,61.0,30.18,ENE,68,1.0,5.0,71,0.00,,,0.00,596.000000,,2013-08-06 14:01:00,
2013-08-06 10:11:00,71.0,59.0,30.19,North,5,1.0,6.0,67,0.00,,,0.00,636.000000,,2013-08-06 14:11:00,
2013-08-06 10:22:00,71.0,59.0,30.19,North,5,1.0,6.0,67,0.00,,,0.00,636.000000,,2013-08-06 14:22:00,
2013-08-06 10:32:00,73.0,61.0,30.19,SSE,159,0.0,3.0,65,0.00,,,0.00,673.000000,,2013-08-06 14:32:00,
2013-08-06 10:42:00,73.0,61.0,30.19,NE,55,1.0,4.0,65,0.00,,,0.00,705.000000,,2013-08-06 14:42:00,
2013-08-06 10:53:00,73.0,61.0,30.19,NE,55,1.0,4.0,65,0.00,,,0.00,705.000000,,2013-08-06 14:53:00,
2013-08-06 11:02:00,74.0,60.0,30.19,SSW,200,0.0,4.0,62,0.00,,,0.00,742.000000,,2013-08-06 15:02:00,
2013-08-06 11:12:00,75.0,60.0,30.19,ENE,78,0.0,2.0,59,0.00,,,0.00,763.000000,,2013-08-06 15:12:00,
2013-08-06 11:23:00,75.0,60.0,30.19,ENE,78,0.0,2.0,59,0.00,,,0.00,763.000000,,2013-08-06 15:23:00,
2013-08-06 11:52:00,76.0,61.0,30.19,NNE,28,0.0,4.0,60,0.00,,,0.00,846.000000,,2013-08-06 15:52:00,
2013-08-06 12:02:00,75.0,60.0,30.19,SSW,203,0.0,4.0,60,0.00,,,0.00,814.000000,,2013-08-06 16:02:00,
2013-08-06 12:11:00,75.0,60.0,30.19,SSW,203,0.0,4.0,60,0.00,,,0.00,814.000000,,2013-08-06 16:11:00,
2013-08-06 12:22:00,76.0,60.0,30.20,NNE,12,0.0,5.0,57,0.00,,,0.00,891.000000,,2013-08-06 16:22:00,
2013-08-06 12:32:00,76.0,60.0,30.20,NNE,12,0.0,5.0,57,0.00,,,0.00,891.000000,,2013-08-06 16:32:00,
2013-08-06 12:43:00,75.0,55.0,30.20,ENE,69,0.0,3.0,49,0.00,,,0.00,223.000000,,2013-08-06 16:43:00,
2013-08-06 12:52:00,75.0,55.0,30.20,ENE,69,0.0,3.0,49,0.00,,,0.00,223.000000,,2013-08-06 16:52:00,
2013-08-06 13:22:00,76.0,57.0,30.20,WNW,296,0.0,4.0,51,0.00,,,0.00,896.000000,,2013-08-06 17:22:00,
2013-08-06 13:32:00,77.0,59.0,30.20,ESE,119,0.0,5.0,54,0.00,,,0.00,905.000000,,2013-08-06 17:32:00,
2013-08-06 13:44:00,77.0,56.0,30.19,ESE,119,0.0,3.0,48,0.00,,,0.00,918.000000,,2013-08-06 17:44:00,
2013-08-06 13:52:00,77.0,56.0,30.19,ESE,119,0.0,3.0,48,0.00,,,0.00,918.000000,,2013-08-06 17:52:00,
2013-08-06 14:02:00,76.0,55.0,30.19,ESE,105,0.0,4.0,48,0.00,,,0.00,893.000000,,2013-08-06 18:02:00,
2013-08-06 14:11:00,77.0,55.0,30.18,ESE,121,1.0,7.0,47,0.00,,,0.00,875.000000,,2013-08-06 18:11:00,
2013-08-06 14:22:00,77.0,55.0,30.18,ESE,121,1.0,7.0,47,0.00,,,0.00,875.000000,,2013-08-06 18:22:00,
2013-08-06 14:32:00,78.0,58.0,30.18,ESE,109,1.0,5.0,50,0.00,,,0.00,905.000000,,2013-08-06 18:32:00,
2013-08-06 14:43:00,77.0,58.0,30.19,West,265,1.0,5.0,52,0.00,,,0.00,178.000000,,2013-08-06 18:43:00,
2013-08-06 14:52:00,77.0,58.0,30.19,West,265,1.0,5.0,52,0.00,,,0.00,178.000000,,2013-08-06 18:52:00,
2013-08-06 15:01:00,74.0,59.0,30.19,WNW,290,0.0,3.0,59,0.00,,,0.00,118.000000,,2013-08-06 19:01:00,
2013-08-06 15:11:00,74.0,59.0,30.19,WNW,290,0.0,3.0,59,0.00,,,0.00,118.000000,,2013-08-06 19:11:00,
2013-08-06 15:22:00,73.0,59.0,30.19,West,281,0.0,1.0,62,0.00,,,0.00,121.000000,,2013-08-06 19:22:00,
2013-08-06 15:32:00,72.0,59.0,30.19,WSW,237,0.0,3.0,64,0.00,,,0.00,151.000000,,2013-08-06 19:32:00,
2013-08-06 15:42:00,74.0,60.0,30.18,East,86,2.0,7.0,61,0.00,,,0.00,884.000000,,2013-08-06 19:42:00,
2013-08-06 15:52:00,74.0,60.0,30.18,East,86,2.0,7.0,61,0.00,,,0.00,884.000000,,2013-08-06 19:52:00,
2013-08-06 16:01:00,74.0,59.0,30.19,SE,131,0.0,8.0,59,0.00,,,0.00,288.000000,,2013-08-06 20:01:00,
2013-08-06 16:22:00,75.0,60.0,30.18,SE,146,0.0,6.0,59,0.00,,,0.00,768.000000,,2013-08-06 20:22:00,
2013-08-06 16:52:00,74.0,59.0,30.19,ESE,107,0.0,4.0,60,0.00,,,0.00,98.000000,,2013-08-06 20:52:00,
2013-08-06 17:11:00,74.0,59.0,30.19,SSE,153,0.0,3.0,60,0.00,,,0.00,471.000000,,2013-08-06 21:11:00,
2013-08-06 17:43:00,73.0,57.0,30.19,NW,324,0.0,2.0,58,0.00,,,0.00,35.000000,,2013-08-06 21:43:00,
2013-08-06 17:52:00,73.0,57.0,30.19,NW,324,0.0,2.0,58,0.00,,,0.00,35.000000,,2013-08-06 21:52:00,
2013-08-06 18:01:00,71.0,58.0,30.19,SE,140,0.0,1.0,64,0.00,,,0.00,91.000000,,2013-08-06 22:01:00,
2013-08-06 18:22:00,72.0,59.0,30.19,East,101,0.0,1.0,63,0.00,,,0.00,93.000000,,2013-08-06 22:22:00,
2013-08-06 18:43:00,72.0,57.0,30.19,WNW,301,0.0,1.0,59,0.00,,,0.00,32.000000,,2013-08-06 22:43:00,
2013-08-06 19:02:00,71.0,56.0,30.19,East,94,0.0,1.0,60,0.00,,,0.00,26.000000,,2013-08-06 23:02:00,
2013-08-06 19:11:00,71.0,56.0,30.19,East,94,0.0,1.0,60,0.00,,,0.00,26.000000,,2013-08-06 23:11:00,
2013-08-06 19:22:00,70.0,57.0,30.19,East,94,0.0,1.0,63,0.00,,,0.00,21.000000,,2013-08-06 23:22:00,
2013-08-06 19:43:00,69.0,57.0,30.20,West,269,0.0,6.0,66,0.00,,,0.00,12.000000,,2013-08-06 23:43:00,
2013-08-06 19:52:00,69.0,57.0,30.20,West,269,0.0,6.0,66,0.00,,,0.00,12.000000,,2013-08-06 23:52:00,
2013-08-06 20:01:00,68.0,57.0,30.20,West,271,0.0,0.0,67,0.00,,,0.00,7.000000,,2013-08-07 00:01:00,
2013-08-06 20:11:00,68.0,57.0,30.20,West,271,0.0,0.0,67,0.00,,,0.00,7.000000,,2013-08-07 00:11:00,
2013-08-06 20:21:00,68.0,57.0,30.21,SW,236,0.0,2.0,68,0.00,,,0.00,0.000000,,2013-08-07 00:21:00,
2013-08-06 20:32:00,67.0,56.0,30.21,SW,236,0.0,0.0,69,0.00,,,0.00,0.000000,,2013-08-07 00:32:00,
2013-08-06 20:43:00,67.0,57.0,30.21,SW,236,0.0,0.0,71,0.00,,,0.00,0.000000,,2013-08-07 00:43:00,
2013-08-06 20:52:00,67.0,57.0,30.21,SW,236,0.0,0.0,71,0.00,,,0.00,0.000000,,2013-08-07 00:52:00,
2013-08-06 21:01:00,67.0,57.0,30.21,SW,236,0.0,0.0,71,0.00,,,0.00,0.000000,,2013-08-07 01:01:00,
2013-08-06 21:11:00,67.0,57.0,30.21,SW,236,0.0,0.0,71,0.00,,,0.00,0.000000,,2013-08-07 01:11:00,
2013-08-06 21:22:00,66.0,58.0,30.21,SW,236,0.0,0.0,75,0.00,,,0.00,0.000000,,2013-08-07 01:22:00,
2013-08-06 21:32:00,65.0,57.0,30.21,SW,236,0.0,0.0,75,0.00,,,0.00,0.000000,,2013-08-07 01:32:00,
2013-08-06 21:43:00,65.0,57.0,30.21,SW,236,0.0,0.0,75,0.00,,,0.00,0.000000,,2013-08-07 01:43:00,
2013-08-06 21:52:00,65.0,57.0,30.22,SW,236,0.0,0.0,76,0.00,,,0.00,0.000000,,2013-08-07 01:52:00,
2013-08-06 22:33:00,64.0,58.0,30.22,SW,236,0.0,0.0,80,0.00,,,0.00,0.000000,,2013-08-07 02:33:00,
2013-08-06 22:53:00,64.0,58.0,30.22,SW,236,0.0,0.0,80,0.00,,,0.00,0.000000,,2013-08-07 02:53:00,
2013-08-06 23:01:00,64.0,58.0,30.22,West,262,0.0,1.0,81,0.00,,,0.00,0.000000,,2013-08-07 03:01:00,
2013-08-06 23:12:00,64.0,58.0,30.22,West,262,0.0,0.0,82,0.00,,,0.00,0.000000,,2013-08-07 03:12:00,
2013-08-06 23:23:00,64.0,58.0,30.22,West,262,0.0,0.0,82,0.00,,,0.00,0.000000,,2013-08-07 03:23:00,
2013-08-06 23:32:00,64.0,58.0,30.22,West,262,0.0,0.0,82,0.00,,,0.00,0.000000,,2013-08-07 03:32:00,
2013-08-06 23:43:00,63.0,58.0,30.22,West,262,0.0,0.0,84,0.00,,,0.00,0.000000,,2013-08-07 03:43:00,